Time;durP1;ratioP1;P1;durP2;ratioP2;P2;SDS_P1;SDS_P2;PMS_P1;PMS_P2;Temp;Humidity;BMP_temperature;BMP_pressure;BME280_temperature;BME280_humidity;BME280_pressure;Samples;Min_cycle;Max_cycle;Signal;HPM_P1;HPM_P2
2022/08/27 00:00:19;;;;;;;18.20;5.30;;;;;;;;;;5070662;28;20596;-65
2022/08/27 00:02:44;;;;;;;16.40;6.50;;;;;;;;;;5072842;28;20020;-65
2022/08/27 00:05:10;;;;;;;12.60;6.72;;;;;;;;;;5073997;28;20031;-68
2022/08/27 00:07:35;;;;;;;11.63;6.05;;;;;;;;;;5068914;28;20470;-65
2022/08/27 00:10:01;;;;;;;13.35;6.55;;;;;;;;;;5073294;28;20033;-64
2022/08/27 00:12:26;;;;;;;10.70;6.13;;;;;;;;;;5074637;28;20423;-66
2022/08/27 00:14:52;;;;;;;11.33;5.83;;;;;;;;;;5068967;28;20056;-65
2022/08/27 00:17:17;;;;;;;20.08;6.03;;;;;;;;;;5073124;28;20274;-64
2022/08/27 00:19:42;;;;;;;16.50;5.65;;;;;;;;;;5068812;28;20397;-66
2022/08/27 00:22:08;;;;;;;10.43;5.60;;;;;;;;;;5076286;28;20376;-64
2022/08/27 00:24:33;;;;;;;10.48;5.72;;;;;;;;;;5071865;28;20278;-67
2022/08/27 00:26:58;;;;;;;12.88;6.97;;;;;;;;;;5072538;28;20008;-66
2022/08/27 00:29:25;;;;;;;18.77;6.77;;;;;;;;;;5071575;28;20424;-65
2022/08/27 00:31:50;;;;;;;12.13;7.28;;;;;;;;;;5071787;28;20267;-66
2022/08/27 00:34:15;;;;;;;13.88;7.88;;;;;;;;;;5071694;28;20027;-66
2022/08/27 00:36:41;;;;;;;17.23;7.87;;;;;;;;;;5080603;28;20063;-67
2022/08/27 00:39:06;;;;;;;12.80;7.70;;;;;;;;;;5072019;28;20024;-66
2022/08/27 00:41:32;;;;;;;11.27;8.17;;;;;;;;;;5077641;28;20499;-65
2022/08/27 00:43:59;;;;;;;11.10;8.40;;;;;;;;;;5076927;28;20286;-65
2022/08/27 00:46:30;;;;;;;14.68;8.52;;;;;;;;;;5069316;28;20667;-65
2022/08/27 00:48:59;;;;;;;11.43;8.43;;;;;;;;;;5071735;28;20128;-65
2022/08/27 00:51:24;;;;;;;19.92;7.32;;;;;;;;;;5069410;28;20353;-65
2022/08/27 00:53:50;;;;;;;13.43;7.93;;;;;;;;;;5072382;28;20077;-65
2022/08/27 00:56:19;;;;;;;18.75;11.13;;;;;;;;;;5071959;28;20039;-67
2022/08/27 00:58:46;;;;;;;16.50;10.88;;;;;;;;;;5072450;28;20055;-64
2022/08/27 01:01:12;;;;;;;16.15;8.52;;;;;;;;;;5069594;28;20142;-65
2022/08/27 01:03:38;;;;;;;15.63;9.73;;;;;;;;;;5071828;28;20095;-67
2022/08/27 01:06:04;;;;;;;18.05;8.40;;;;;;;;;;5071100;28;20592;-65
2022/08/27 01:08:31;;;;;;;11.43;7.60;;;;;;;;;;5071627;28;20017;-64
2022/08/27 01:10:57;;;;;;;14.25;7.80;;;;;;;;;;5072448;28;20098;-65
2022/08/27 01:13:24;;;;;;;14.45;7.30;;;;;;;;;;5071525;28;20021;-66
2022/08/27 01:15:50;;;;;;;16.15;7.15;;;;;;;;;;5070071;28;20477;-65
2022/08/27 01:18:15;;;;;;;10.20;7.25;;;;;;;;;;5071721;28;20028;-66
2022/08/27 01:20:44;;;;;;;12.77;8.13;;;;;;;;;;5072226;28;20416;-65
2022/08/27 01:23:27;;;;;;;12.43;8.25;;;;;;;;;;5071851;28;20637;-65
2022/08/27 01:25:53;;;;;;;14.63;8.55;;;;;;;;;;5070873;28;20105;-66
2022/08/27 01:28:20;;;;;;;20.05;8.93;;;;;;;;;;5069380;28;20044;-65
2022/08/27 01:30:45;;;;;;;17.05;8.85;;;;;;;;;;5070516;28;20021;-68
2022/08/27 01:33:13;;;;;;;15.68;8.55;;;;;;;;;;5069396;28;20384;-66
2022/08/27 01:35:39;;;;;;;15.35;8.57;;;;;;;;;;5068797;28;20461;-65
2022/08/27 01:38:04;;;;;;;15.23;7.82;;;;;;;;;;5071989;28;20143;-64
2022/08/27 01:40:29;;;;;;;15.07;8.30;;;;;;;;;;5070926;28;20028;-65
2022/08/27 01:42:55;;;;;;;19.02;8.15;;;;;;;;;;5066896;28;20661;-66
2022/08/27 01:45:23;;;;;;;11.60;7.00;;;;;;;;;;5068386;28;20091;-64
2022/08/27 01:47:48;;;;;;;10.90;6.68;;;;;;;;;;5069373;28;20016;-65
2022/08/27 01:50:16;;;;;;;8.17;5.83;;;;;;;;;;5070614;28;20028;-65
2022/08/27 01:52:41;;;;;;;10.30;5.88;;;;;;;;;;5071147;28;20306;-68
2022/08/27 01:55:08;;;;;;;14.25;5.82;;;;;;;;;;5067691;28;20773;-65
2022/08/27 01:57:34;;;;;;;13.75;7.20;;;;;;;;;;5063874;28;20063;-65
2022/08/27 01:59:59;;;;;;;10.57;6.47;;;;;;;;;;5069648;28;20104;-65
2022/08/27 02:02:24;;;;;;;17.70;8.60;;;;;;;;;;5069535;28;20473;-66
2022/08/27 02:04:50;;;;;;;17.73;8.52;;;;;;;;;;5069721;28;20024;-65
2022/08/27 02:07:16;;;;;;;20.30;9.48;;;;;;;;;;5069654;28;20027;-65
2022/08/27 02:09:41;;;;;;;23.80;10.75;;;;;;;;;;5069811;28;20016;-66
2022/08/27 02:12:06;;;;;;;20.87;11.57;;;;;;;;;;5070380;28;20020;-65
2022/08/27 02:14:31;;;;;;;24.05;12.25;;;;;;;;;;5070623;28;20634;-63
2022/08/27 02:16:57;;;;;;;23.42;12.77;;;;;;;;;;5071290;28;20036;-64
2022/08/27 02:19:22;;;;;;;29.97;13.87;;;;;;;;;;5071281;28;20412;-65
2022/08/27 02:21:48;;;;;;;30.60;15.02;;;;;;;;;;5071403;28;20263;-65
2022/08/27 02:24:13;;;;;;;21.42;13.35;;;;;;;;;;5071316;28;20023;-65
2022/08/27 02:26:39;;;;;;;23.43;13.93;;;;;;;;;;5070876;28;20021;-65
2022/08/27 02:29:04;;;;;;;28.52;15.40;;;;;;;;;;5071409;28;20270;-65
2022/08/27 02:31:30;;;;;;;33.90;18.58;;;;;;;;;;5071021;28;20073;-65
2022/08/27 02:33:55;;;;;;;38.20;20.20;;;;;;;;;;5071306;28;20095;-65
2022/08/27 02:36:20;;;;;;;39.50;21.02;;;;;;;;;;5070875;28;20098;-65
2022/08/27 02:38:46;;;;;;;42.27;21.60;;;;;;;;;;5071345;28;20017;-65
2022/08/27 02:41:11;;;;;;;39.50;21.40;;;;;;;;;;5071244;28;20297;-67
2022/08/27 02:43:36;;;;;;;45.80;21.63;;;;;;;;;;5070408;28;20024;-65
2022/08/27 02:46:02;;;;;;;39.58;20.45;;;;;;;;;;5070237;28;20279;-67
2022/08/27 02:48:27;;;;;;;40.13;20.30;;;;;;;;;;5070924;28;20012;-66
2022/08/27 02:50:53;;;;;;;40.23;20.87;;;;;;;;;;5070853;28;20086;-65
2022/08/27 02:53:19;;;;;;;40.50;21.80;;;;;;;;;;5071093;28;20278;-65
2022/08/27 02:55:44;;;;;;;41.45;22.52;;;;;;;;;;5070343;28;20035;-65
2022/08/27 02:58:11;;;;;;;40.60;22.15;;;;;;;;;;5070858;28;20020;-67
2022/08/27 03:00:36;;;;;;;38.03;21.77;;;;;;;;;;5070760;28;20028;-65
2022/08/27 03:03:02;;;;;;;39.88;20.98;;;;;;;;;;5070638;28;20029;-67
2022/08/27 03:05:27;;;;;;;35.60;19.15;;;;;;;;;;5070164;28;20036;-67
2022/08/27 03:07:52;;;;;;;43.50;20.67;;;;;;;;;;5070697;28;20024;-66
2022/08/27 03:10:19;;;;;;;37.20;17.70;;;;;;;;;;5070717;28;20246;-66
2022/08/27 03:12:44;;;;;;;28.33;16.35;;;;;;;;;;5070669;28;20024;-66
2022/08/27 03:15:11;;;;;;;36.70;14.67;;;;;;;;;;5070259;28;20017;-65
2022/08/27 03:20:21;;;;;;;27.13;14.07;;;;;;;;;;5070712;28;20028;-65
2022/08/27 03:22:46;;;;;;;24.80;12.32;;;;;;;;;;5070842;28;20550;-63
2022/08/27 03:25:12;;;;;;;25.83;11.77;;;;;;;;;;5070370;28;20021;-64
2022/08/27 03:27:37;;;;;;;27.88;12.48;;;;;;;;;;5069330;28;20902;-65
2022/08/27 03:30:04;;;;;;;27.05;12.77;;;;;;;;;;5070715;28;20020;-65
2022/08/27 03:32:29;;;;;;;25.05;12.80;;;;;;;;;;5070210;28;20439;-66
2022/08/27 03:34:57;;;;;;;29.52;12.73;;;;;;;;;;5070330;28;20021;-65
2022/08/27 03:37:22;;;;;;;23.25;11.57;;;;;;;;;;5070226;28;20471;-66
2022/08/27 03:39:47;;;;;;;25.20;11.00;;;;;;;;;;5070340;28;20112;-66
2022/08/27 03:42:12;;;;;;;21.13;10.67;;;;;;;;;;5069737;28;20255;-65
2022/08/27 03:44:37;;;;;;;22.97;11.87;;;;;;;;;;5069586;28;20673;-65
2022/08/27 03:47:03;;;;;;;24.33;12.17;;;;;;;;;;5069709;28;20027;-64
2022/08/27 03:49:28;;;;;;;31.00;11.23;;;;;;;;;;5070147;28;20250;-66
2022/08/27 03:51:53;;;;;;;25.40;11.05;;;;;;;;;;5068496;28;20044;-65
2022/08/27 03:54:19;;;;;;;28.50;11.27;;;;;;;;;;5069662;28;20024;-66
2022/08/27 03:56:44;;;;;;;29.60;10.88;;;;;;;;;;5072243;28;20020;-65
2022/08/27 03:59:09;;;;;;;26.80;10.30;;;;;;;;;;5073880;28;20044;-66
2022/08/27 04:01:34;;;;;;;25.35;10.13;;;;;;;;;;5073873;28;20028;-65
2022/08/27 04:03:59;;;;;;;28.17;10.80;;;;;;;;;;5073549;28;20020;-66
2022/08/27 04:06:25;;;;;;;17.48;9.70;;;;;;;;;;5073544;28;20037;-64
2022/08/27 04:08:50;;;;;;;19.27;8.93;;;;;;;;;;5073956;28;20016;-67
2022/08/27 04:11:15;;;;;;;22.73;9.45;;;;;;;;;;5073765;28;20069;-64
2022/08/27 04:13:40;;;;;;;26.50;9.73;;;;;;;;;;5074105;28;20040;-65
2022/08/27 04:16:06;;;;;;;20.70;9.40;;;;;;;;;;5073560;28;20375;-65
2022/08/27 04:18:31;;;;;;;21.90;9.15;;;;;;;;;;5073693;28;20263;-66
2022/08/27 04:20:57;;;;;;;37.60;11.05;;;;;;;;;;5073589;28;20104;-64
2022/08/27 04:23:22;;;;;;;24.83;9.88;;;;;;;;;;5073648;28;20067;-64
2022/08/27 04:25:47;;;;;;;29.05;11.60;;;;;;;;;;5072998;28;20035;-65
2022/08/27 04:28:14;;;;;;;31.27;12.43;;;;;;;;;;5073681;28;20012;-64
2022/08/27 04:30:40;;;;;;;25.92;11.57;;;;;;;;;;5073200;28;20255;-65
2022/08/27 04:33:05;;;;;;;26.55;12.25;;;;;;;;;;5073383;28;20040;-65
2022/08/27 04:35:30;;;;;;;27.30;12.57;;;;;;;;;;5073170;28;20055;-65
2022/08/27 04:37:56;;;;;;;22.63;10.87;;;;;;;;;;5073261;28;20020;-65
2022/08/27 04:40:21;;;;;;;26.17;11.70;;;;;;;;;;5073475;28;20282;-67
2022/08/27 04:42:46;;;;;;;27.50;11.27;;;;;;;;;;5073069;28;20111;-65
2022/08/27 04:45:11;;;;;;;23.70;12.30;;;;;;;;;;5072486;28;20274;-69
2022/08/27 04:47:37;;;;;;;32.43;10.13;;;;;;;;;;5072540;28;20259;-65
2022/08/27 04:50:02;;;;;;;22.65;9.82;;;;;;;;;;5072991;28;20334;-66
2022/08/27 04:52:27;;;;;;;25.48;10.80;;;;;;;;;;5072936;28;20044;-64
2022/08/27 04:54:52;;;;;;;28.90;11.35;;;;;;;;;;5072796;28;20091;-65
2022/08/27 04:57:18;;;;;;;28.25;12.00;;;;;;;;;;5072965;28;20100;-67
2022/08/27 04:59:43;;;;;;;28.63;10.07;;;;;;;;;;5073340;28;20108;-65
2022/08/27 05:02:09;;;;;;;26.67;10.02;;;;;;;;;;5073026;28;20095;-65
2022/08/27 05:04:36;;;;;;;24.13;10.23;;;;;;;;;;5072653;28;20023;-66
2022/08/27 05:07:02;;;;;;;20.10;9.13;;;;;;;;;;5071663;28;20021;-65
2022/08/27 05:09:27;;;;;;;15.70;9.68;;;;;;;;;;5072761;28;20066;-66
2022/08/27 05:11:54;;;;;;;17.75;8.18;;;;;;;;;;5072956;28;20017;-63
2022/08/27 05:14:21;;;;;;;26.67;9.52;;;;;;;;;;5072520;28;20484;-65
2022/08/27 05:16:46;;;;;;;21.40;9.52;;;;;;;;;;5072424;28;20047;-65
2022/08/27 05:19:15;;;;;;;23.08;8.82;;;;;;;;;;5072627;28;20102;-67
2022/08/27 05:21:44;;;;;;;23.95;8.65;;;;;;;;;;5072361;28;20805;-67
2022/08/27 05:24:09;;;;;;;25.27;8.90;;;;;;;;;;5072566;28;20024;-67
2022/08/27 05:26:35;;;;;;;20.20;9.00;;;;;;;;;;5072068;28;20071;-64
2022/08/27 05:29:01;;;;;;;27.15;9.93;;;;;;;;;;5072375;28;20086;-65
2022/08/27 05:31:27;;;;;;;30.27;9.10;;;;;;;;;;5072223;28;20027;-64
2022/08/27 05:33:54;;;;;;;15.40;7.78;;;;;;;;;;5072419;28;20055;-64
2022/08/27 05:36:21;;;;;;;23.10;8.63;;;;;;;;;;5070661;28;20073;-65
2022/08/27 05:38:48;;;;;;;14.23;8.55;;;;;;;;;;5072085;28;20016;-64
2022/08/27 05:41:15;;;;;;;16.38;7.78;;;;;;;;;;5072331;28;20124;-67
2022/08/27 05:43:41;;;;;;;28.60;8.70;;;;;;;;;;5072092;28;20131;-67
2022/08/27 05:46:11;;;;;;;18.60;9.40;;;;;;;;;;5070587;28;20104;-64
2022/08/27 05:48:37;;;;;;;20.15;10.30;;;;;;;;;;5072053;28;20020;-64
2022/08/27 05:51:08;;;;;;;19.45;9.95;;;;;;;;;;5072050;28;20388;-64
2022/08/27 05:53:33;;;;;;;18.20;9.20;;;;;;;;;;5071898;28;20487;-65
2022/08/27 05:55:59;;;;;;;21.13;10.13;;;;;;;;;;5071624;28;20029;-64
2022/08/27 06:01:08;;;;;;;21.58;10.82;;;;;;;;;;5071780;28;20591;-64
2022/08/27 06:03:34;;;;;;;21.27;10.57;;;;;;;;;;5071576;28;20103;-64
2022/08/27 06:06:04;;;;;;;24.95;10.02;;;;;;;;;;5071291;28;20107;-64
2022/08/27 06:08:29;;;;;;;28.00;10.40;;;;;;;;;;5071471;28;20385;-64
2022/08/27 06:10:55;;;;;;;23.30;10.10;;;;;;;;;;5071204;28;20024;-64
2022/08/27 06:13:20;;;;;;;21.50;9.48;;;;;;;;;;5071302;28;20024;-64
2022/08/27 06:15:45;;;;;;;18.25;8.55;;;;;;;;;;5070941;28;20025;-64
2022/08/27 06:18:12;;;;;;;20.43;8.60;;;;;;;;;;5071658;28;20020;-67
2022/08/27 06:20:37;;;;;;;16.50;8.35;;;;;;;;;;5071624;28;20250;-67
2022/08/27 06:23:02;;;;;;;23.52;8.02;;;;;;;;;;5071262;28;20024;-67
2022/08/27 06:25:27;;;;;;;21.30;9.10;;;;;;;;;;5070766;28;20047;-67
2022/08/27 06:27:53;;;;;;;23.37;10.53;;;;;;;;;;5071260;28;20024;-67
2022/08/27 06:30:18;;;;;;;16.37;8.63;;;;;;;;;;5071229;28;20344;-67
2022/08/27 06:32:43;;;;;;;16.67;9.47;;;;;;;;;;5071380;28;20727;-64
2022/08/27 06:35:08;;;;;;;20.03;8.63;;;;;;;;;;5071169;28;20259;-64
2022/08/27 06:37:33;;;;;;;20.52;8.85;;;;;;;;;;5071047;28;20350;-64
2022/08/27 06:39:59;;;;;;;13.30;8.77;;;;;;;;;;5071229;28;20020;-64
2022/08/27 06:42:24;;;;;;;18.27;8.90;;;;;;;;;;5070799;28;20095;-64
2022/08/27 06:44:50;;;;;;;18.67;8.85;;;;;;;;;;5070884;28;20103;-64
2022/08/27 06:47:15;;;;;;;18.38;9.52;;;;;;;;;;5070812;28;20552;-64
2022/08/27 06:49:40;;;;;;;19.00;9.82;;;;;;;;;;5070805;28;20028;-64
2022/08/27 06:52:06;;;;;;;19.55;10.18;;;;;;;;;;5070878;28;20104;-64
2022/08/27 06:54:31;;;;;;;22.08;10.07;;;;;;;;;;5070510;28;20047;-64
2022/08/27 06:56:57;;;;;;;17.88;10.63;;;;;;;;;;5070593;28;20020;-64
2022/08/27 06:59:22;;;;;;;22.42;11.45;;;;;;;;;;5070661;28;20020;-64
2022/08/27 07:01:49;;;;;;;16.53;10.83;;;;;;;;;;5070693;28;20020;-64
2022/08/27 07:04:22;;;;;;;24.52;11.05;;;;;;;;;;5070685;28;20342;-64
2022/08/27 07:06:48;;;;;;;26.58;10.48;;;;;;;;;;5070490;28;20077;-64
2022/08/27 07:09:13;;;;;;;19.17;12.23;;;;;;;;;;5070720;28;20376;-64
2022/08/27 07:11:38;;;;;;;21.75;11.27;;;;;;;;;;5070400;28;20411;-64
2022/08/27 07:14:05;;;;;;;21.45;10.27;;;;;;;;;;5070545;28;20039;-65
2022/08/27 07:16:30;;;;;;;21.55;10.52;;;;;;;;;;5070353;28;20017;-64
2022/08/27 07:18:56;;;;;;;21.58;10.95;;;;;;;;;;5070429;28;20012;-64
2022/08/27 07:21:22;;;;;;;20.77;10.02;;;;;;;;;;5070860;28;20354;-64
2022/08/27 07:23:49;;;;;;;16.13;10.13;;;;;;;;;;5070605;28;20017;-64
2022/08/27 07:26:14;;;;;;;21.85;10.43;;;;;;;;;;5070180;28;20583;-64
2022/08/27 07:28:40;;;;;;;18.45;11.13;;;;;;;;;;5070438;28;20111;-64
2022/08/27 07:31:07;;;;;;;19.45;11.57;;;;;;;;;;5073948;28;20103;-64
2022/08/27 07:33:33;;;;;;;24.13;9.70;;;;;;;;;;5076946;28;20024;-64
2022/08/27 07:35:58;;;;;;;18.58;10.07;;;;;;;;;;5076708;28;20024;-64
2022/08/27 07:38:23;;;;;;;19.23;9.13;;;;;;;;;;5076774;28;20020;-64
2022/08/27 07:40:51;;;;;;;18.10;9.57;;;;;;;;;;5077065;28;20059;-64
2022/08/27 07:46:00;;;;;;;26.58;11.18;;;;;;;;;;5076664;28;20028;-64
2022/08/27 07:48:25;;;;;;;17.17;9.70;;;;;;;;;;5076838;28;20072;-64
2022/08/27 07:50:51;;;;;;;19.55;10.52;;;;;;;;;;5076888;28;20020;-64
2022/08/27 07:53:16;;;;;;;20.08;11.40;;;;;;;;;;5076787;28;20100;-64
2022/08/27 07:55:41;;;;;;;17.75;10.68;;;;;;;;;;5076316;28;20086;-64
2022/08/27 07:58:07;;;;;;;21.15;11.18;;;;;;;;;;5076968;28;20016;-64
2022/08/27 08:00:32;;;;;;;17.15;9.90;;;;;;;;;;5076744;28;20029;-64
2022/08/27 08:02:58;;;;;;;22.77;11.15;;;;;;;;;;5077074;28;20046;-64
2022/08/27 08:05:23;;;;;;;19.48;10.10;;;;;;;;;;5076299;28;20031;-67
2022/08/27 08:07:50;;;;;;;16.15;9.82;;;;;;;;;;5076796;28;20021;-64
2022/08/27 08:10:16;;;;;;;16.30;9.98;;;;;;;;;;5076766;28;20472;-64
2022/08/27 08:12:41;;;;;;;20.00;10.77;;;;;;;;;;5076524;28;20103;-64
2022/08/27 08:15:08;;;;;;;17.27;10.17;;;;;;;;;;5076457;28;20020;-64
2022/08/27 08:17:33;;;;;;;19.52;10.52;;;;;;;;;;5075227;28;20032;-64
2022/08/27 08:19:59;;;;;;;19.05;10.13;;;;;;;;;;5076701;28;20016;-64
2022/08/27 08:22:24;;;;;;;21.95;10.52;;;;;;;;;;5076330;28;20027;-64
2022/08/27 08:24:50;;;;;;;15.32;9.95;;;;;;;;;;5076236;28;20035;-64
2022/08/27 08:27:15;;;;;;;20.45;10.38;;;;;;;;;;5075918;28;20431;-64
2022/08/27 08:29:41;;;;;;;24.02;11.07;;;;;;;;;;5076223;28;20389;-64
2022/08/27 08:32:06;;;;;;;19.15;9.63;;;;;;;;;;5076273;28;20043;-64
2022/08/27 08:34:32;;;;;;;19.25;9.95;;;;;;;;;;5076027;28;20021;-64
2022/08/27 08:36:57;;;;;;;17.85;10.25;;;;;;;;;;5076001;28;20039;-64
2022/08/27 08:39:23;;;;;;;20.27;10.47;;;;;;;;;;5076099;28;20028;-64
2022/08/27 08:41:51;;;;;;;14.70;9.30;;;;;;;;;;5074475;28;20338;-64
2022/08/27 08:44:39;;;;;;;17.33;9.63;;;;;;;;;;5070882;28;20044;-64
2022/08/27 08:47:04;;;;;;;18.27;8.93;;;;;;;;;;5066477;28;20029;-64
2022/08/27 08:49:37;;;;;;;13.13;8.75;;;;;;;;;;5073107;28;20099;-64
2022/08/27 08:52:19;;;;;;;21.50;9.93;;;;;;;;;;5073211;28;20021;-67
2022/08/27 08:54:44;;;;;;;20.27;9.00;;;;;;;;;;5072891;28;20025;-64
2022/08/27 08:57:15;;;;;;;12.43;8.55;;;;;;;;;;5072626;28;20024;-64
2022/08/27 08:59:43;;;;;;;14.50;9.75;;;;;;;;;;5072739;28;20532;-64
2022/08/27 09:02:13;;;;;;;15.77;9.43;;;;;;;;;;5072854;28;20024;-64
2022/08/27 09:04:38;;;;;;;17.35;8.65;;;;;;;;;;5072505;28;20016;-64
2022/08/27 09:07:11;;;;;;;18.65;8.88;;;;;;;;;;5072439;28;20039;-66
2022/08/27 09:09:45;;;;;;;25.02;11.50;;;;;;;;;;5072740;28;20044;-66
2022/08/27 09:12:14;;;;;;;14.45;8.30;;;;;;;;;;5072621;28;20496;-66
2022/08/27 09:14:49;;;;;;;22.05;8.95;;;;;;;;;;5072536;28;20025;-66
2022/08/27 09:17:14;;;;;;;16.90;8.73;;;;;;;;;;5072240;28;20039;-66
2022/08/27 09:19:41;;;;;;;18.73;8.47;;;;;;;;;;5072486;28;20024;-65
2022/08/27 09:22:14;;;;;;;17.92;8.60;;;;;;;;;;5072543;28;20247;-65
2022/08/27 09:24:48;;;;;;;14.45;8.18;;;;;;;;;;5072075;28;20081;-65
2022/08/27 09:27:14;;;;;;;16.23;8.02;;;;;;;;;;5072151;28;20019;-65
2022/08/27 09:29:47;;;;;;;14.52;7.50;;;;;;;;;;5072270;28;20016;-65
2022/08/27 09:32:12;;;;;;;13.50;7.65;;;;;;;;;;5072377;28;20096;-66
2022/08/27 09:34:40;;;;;;;17.50;8.17;;;;;;;;;;5073175;28;20048;-64
2022/08/27 09:37:08;;;;;;;13.88;7.75;;;;;;;;;;5072841;28;20251;-65
2022/08/27 09:39:39;;;;;;;14.15;7.93;;;;;;;;;;5072668;28;20024;-65
2022/08/27 09:42:05;;;;;;;15.63;7.75;;;;;;;;;;5072622;28;20096;-65
2022/08/27 09:44:31;;;;;;;19.33;8.20;;;;;;;;;;5072775;28;20040;-67
2022/08/27 09:46:58;;;;;;;12.15;7.32;;;;;;;;;;5072262;28;20499;-65
2022/08/27 09:49:23;;;;;;;21.90;7.38;;;;;;;;;;5072577;28;20021;-66
2022/08/27 09:51:49;;;;;;;16.52;7.05;;;;;;;;;;5072137;28;20042;-65
2022/08/27 09:54:33;;;;;;;15.02;5.90;;;;;;;;;;5071686;28;20019;-66
2022/08/27 09:56:58;;;;;;;11.40;5.65;;;;;;;;;;5072336;28;20017;-66
2022/08/27 09:59:26;;;;;;;12.02;5.10;;;;;;;;;;5072548;28;20076;-66
2022/08/27 10:01:59;;;;;;;10.02;5.20;;;;;;;;;;5072299;28;20497;-66
2022/08/27 10:04:25;;;;;;;16.42;4.57;;;;;;;;;;5072214;28;20028;-66
2022/08/27 10:06:51;;;;;;;8.23;4.90;;;;;;;;;;5071815;28;20069;-65
2022/08/27 10:09:18;;;;;;;11.50;4.68;;;;;;;;;;5072273;28;20020;-67
2022/08/27 10:11:49;;;;;;;13.55;5.00;;;;;;;;;;5072212;28;20012;-66
2022/08/27 10:14:18;;;;;;;19.30;5.75;;;;;;;;;;5071875;28;20052;-65
2022/08/27 10:16:51;;;;;;;15.02;5.10;;;;;;;;;;5072148;28;20037;-66
2022/08/27 10:19:16;;;;;;;9.80;4.45;;;;;;;;;;5072493;28;20020;-67
2022/08/27 10:21:41;;;;;;;9.20;5.37;;;;;;;;;;5071138;28;20017;-66
2022/08/27 10:24:31;;;;;;;16.10;4.45;;;;;;;;;;5071755;28;20584;-66
2022/08/27 10:27:11;;;;;;;8.70;4.07;;;;;;;;;;5071536;28;20028;-66
2022/08/27 10:29:36;;;;;;;;;;;;;;;;;;5072289;28;20464;-66
2022/08/27 10:32:18;;;;;;;14.05;4.20;;;;;;;;;;5072177;28;20507;-66
2022/08/27 10:34:58;;;;;;;11.07;5.18;;;;;;;;;;5072070;28;20021;-66
2022/08/27 10:37:23;;;;;;;11.30;3.60;;;;;;;;;;5071888;28;20598;-67
2022/08/27 10:39:52;;;;;;;10.83;4.40;;;;;;;;;;5071751;28;20115;-66
2022/08/27 10:42:17;;;;;;;12.45;4.40;;;;;;;;;;5071760;28;20016;-67
2022/08/27 10:44:42;;;;;;;11.10;4.27;;;;;;;;;;5071539;28;20028;-66
2022/08/27 10:47:10;;;;;;;9.90;4.27;;;;;;;;;;5071720;28;20255;-66
2022/08/27 10:49:44;;;;;;;14.07;3.97;;;;;;;;;;5072057;28;20250;-66
2022/08/27 10:52:17;;;;;;;9.73;4.65;;;;;;;;;;5072198;28;20384;-65
2022/08/27 10:54:49;;;;;;;11.52;3.45;;;;;;;;;;5071434;28;20428;-65
2022/08/27 10:57:21;;;;;;;9.18;3.40;;;;;;;;;;5071167;28;20028;-65
2022/08/27 11:00:00;;;;;;;10.40;3.13;;;;;;;;;;5071680;28;20507;-65
2022/08/27 11:02:25;;;;;;;12.63;3.42;;;;;;;;;;5071457;28;20469;-66
2022/08/27 11:04:53;;;;;;;5.77;2.90;;;;;;;;;;5070678;28;20021;-65
2022/08/27 11:07:28;;;;;;;8.60;4.03;;;;;;;;;;5070916;28;20270;-67
2022/08/27 11:09:56;;;;;;;9.40;3.30;;;;;;;;;;5072009;28;20423;-66
2022/08/27 11:12:25;;;;;;;16.33;2.78;;;;;;;;;;5071539;28;20354;-66
2022/08/27 11:14:53;;;;;;;11.35;3.70;;;;;;;;;;5071571;28;20082;-66
2022/08/27 11:17:24;;;;;;;26.02;5.00;;;;;;;;;;5070769;28;20131;-66
2022/08/27 11:19:55;;;;;;;6.28;2.50;;;;;;;;;;5071283;28;20020;-67
2022/08/27 11:22:33;;;;;;;12.93;3.33;;;;;;;;;;5071115;28;20029;-66
2022/08/27 11:25:04;;;;;;;14.32;2.92;;;;;;;;;;5071188;28;20016;-66
2022/08/27 11:27:30;;;;;;;11.10;3.17;;;;;;;;;;5071353;28;20146;-66
2022/08/27 11:30:00;;;;;;;11.55;4.22;;;;;;;;;;5071772;28;20029;-65
2022/08/27 11:32:31;;;;;;;6.27;2.33;;;;;;;;;;5071091;28;20023;-67
2022/08/27 11:34:58;;;;;;;10.30;3.20;;;;;;;;;;5071411;28;20259;-66
2022/08/27 11:37:24;;;;;;;10.45;2.33;;;;;;;;;;5071303;28;20051;-65
2022/08/27 11:40:13;;;;;;;9.30;2.85;;;;;;;;;;5071977;28;20432;-65
2022/08/27 11:42:40;;;;;;;7.80;3.30;;;;;;;;;;5071529;28;20028;-65
2022/08/27 11:45:15;;;;;;;14.25;4.47;;;;;;;;;;5071557;28;20025;-66
2022/08/27 11:47:50;;;;;;;11.20;4.95;;;;;;;;;;5072322;28;20021;-66
2022/08/27 11:50:17;;;;;;;14.57;6.45;;;;;;;;;;5071793;28;20024;-66
2022/08/27 11:52:53;;;;;;;21.60;7.15;;;;;;;;;;5072114;28;20027;-64
2022/08/27 11:55:18;;;;;;;14.02;7.15;;;;;;;;;;5071865;28;20032;-65
2022/08/27 11:57:44;;;;;;;15.75;7.47;;;;;;;;;;5072206;28;20017;-67
2022/08/27 12:00:15;;;;;;;11.40;8.10;;;;;;;;;;5071608;28;20031;-67
2022/08/27 12:02:42;;;;;;;13.57;8.65;;;;;;;;;;5072295;28;20055;-66
2022/08/27 12:05:21;;;;;;;22.83;9.50;;;;;;;;;;5071387;28;20056;-67
2022/08/27 12:07:49;;;;;;;14.52;8.30;;;;;;;;;;5071310;28;20028;-66
2022/08/27 12:10:16;;;;;;;16.67;8.18;;;;;;;;;;5071433;28;20012;-66
2022/08/27 12:13:10;;;;;;;16.55;7.82;;;;;;;;;;5071891;28;20069;-66
2022/08/27 12:15:48;;;;;;;16.80;7.85;;;;;;;;;;5062563;28;20031;-67
2022/08/27 12:18:19;;;;;;;15.52;7.22;;;;;;;;;;5075493;28;20024;-66
2022/08/27 12:20:47;;;;;;;16.90;7.15;;;;;;;;;;5076187;28;20461;-67
2022/08/27 12:23:42;;;;;;;18.10;6.88;;;;;;;;;;5075433;28;20437;-65
2022/08/27 12:26:46;;;;;;;18.50;6.78;;;;;;;;;;5075362;28;20158;-66
2022/08/27 12:29:32;;;;;;;10.20;5.63;;;;;;;;;;5032487;28;20022;-66
2022/08/27 12:32:03;;;;;;;16.55;7.18;;;;;;;;;;5047776;28;20021;-66
2022/08/27 12:34:30;;;;;;;12.15;7.10;;;;;;;;;;5068249;28;20029;-67
2022/08/27 12:36:55;;;;;;;12.18;5.88;;;;;;;;;;5075160;28;20099;-67
2022/08/27 12:39:23;;;;;;;11.20;6.30;;;;;;;;;;5075286;28;20044;-66
2022/08/27 12:41:49;;;;;;;11.45;5.80;;;;;;;;;;5075993;28;20282;-66
2022/08/27 12:44:22;;;;;;;19.52;7.22;;;;;;;;;;5075617;28;20073;-65
2022/08/27 12:46:49;;;;;;;16.65;7.72;;;;;;;;;;5076222;28;20095;-67
2022/08/27 12:49:23;;;;;;;14.45;7.30;;;;;;;;;;5075500;28;20103;-66
2022/08/27 12:51:48;;;;;;;10.98;4.45;;;;;;;;;;5075988;28;20020;-65
2022/08/27 12:54:19;;;;;;;7.93;4.40;;;;;;;;;;5076113;28;20451;-66
2022/08/27 12:57:14;;;;;;;9.40;4.55;;;;;;;;;;5075148;28;20052;-66
2022/08/27 12:59:39;;;;;;;12.85;4.95;;;;;;;;;;5005049;28;20046;-66
2022/08/27 13:02:11;;;;;;;14.03;4.40;;;;;;;;;;5076584;28;20029;-67
2022/08/27 13:04:38;;;;;;;14.75;4.60;;;;;;;;;;5075600;28;20278;-66
2022/08/27 13:07:03;;;;;;;8.73;3.60;;;;;;;;;;5058041;28;20059;-66
2022/08/27 13:09:31;;;;;;;13.70;5.30;;;;;;;;;;5075636;28;20064;-67
2022/08/27 13:11:58;;;;;;;12.98;4.90;;;;;;;;;;5076151;28;20091;-67
2022/08/27 13:14:24;;;;;;;17.20;5.03;;;;;;;;;;5075919;28;20376;-65
2022/08/27 13:16:57;;;;;;;12.45;4.88;;;;;;;;;;5056765;28;20035;-66
2022/08/27 13:19:33;;;;;;;10.05;4.63;;;;;;;;;;5075248;28;20564;-67
2022/08/27 13:22:00;;;;;;;11.05;4.15;;;;;;;;;;5074792;28;20131;-67
2022/08/27 13:24:32;;;;;;;10.43;4.15;;;;;;;;;;5075552;28;20433;-67
2022/08/27 13:26:58;;;;;;;15.30;4.60;;;;;;;;;;5075784;28;20013;-67
2022/08/27 13:29:24;;;;;;;11.18;5.10;;;;;;;;;;5073614;28;20016;-67
2022/08/27 13:31:50;;;;;;;11.13;4.38;;;;;;;;;;5076011;28;20024;-67
2022/08/27 13:34:20;;;;;;;10.20;4.13;;;;;;;;;;5075507;28;20146;-67
2022/08/27 13:36:53;;;;;;;9.77;4.13;;;;;;;;;;5074488;28;20025;-67
2022/08/27 13:39:18;;;;;;;12.48;4.20;;;;;;;;;;5074426;28;20077;-66
2022/08/27 13:41:45;;;;;;;8.75;4.70;;;;;;;;;;5075019;28;20556;-67
2022/08/27 13:44:12;;;;;;;7.75;4.55;;;;;;;;;;5075215;28;20009;-67
2022/08/27 13:46:44;;;;;;;10.63;4.03;;;;;;;;;;5074678;28;20029;-66
2022/08/27 13:49:12;;;;;;;7.65;3.72;;;;;;;;;;5074151;28;20066;-66
2022/08/27 13:51:37;;;;;;;8.70;3.65;;;;;;;;;;5074642;28;20079;-66
2022/08/27 13:54:17;;;;;;;8.93;3.92;;;;;;;;;;5074904;28;20040;-66
2022/08/27 13:56:48;;;;;;;11.75;4.00;;;;;;;;;;5074919;28;20049;-65
2022/08/27 13:59:19;;;;;;;18.55;4.28;;;;;;;;;;5074426;28;20025;-66
2022/08/27 14:01:58;;;;;;;7.80;4.30;;;;;;;;;;5073756;28;20473;-67
2022/08/27 14:04:33;;;;;;;12.05;4.93;;;;;;;;;;5056032;28;20024;-65
2022/08/27 14:07:05;;;;;;;11.88;4.63;;;;;;;;;;5073986;28;20036;-67
2022/08/27 14:09:30;;;;;;;12.65;4.63;;;;;;;;;;5074931;28;20384;-67
2022/08/27 14:12:03;;;;;;;14.90;5.27;;;;;;;;;;5074257;28;20028;-64
2022/08/27 14:14:29;;;;;;;11.13;5.53;;;;;;;;;;5056979;28;20870;-67
2022/08/27 14:16:58;;;;;;;13.85;4.63;;;;;;;;;;5074508;28;20018;-67
2022/08/27 14:19:23;;;;;;;21.00;5.17;;;;;;;;;;5073581;28;20052;-66
2022/08/27 14:21:49;;;;;;;11.25;4.53;;;;;;;;;;5073963;28;20247;-67
2022/08/27 14:24:14;;;;;;;13.75;5.28;;;;;;;;;;5073987;28;20409;-66
2022/08/27 14:26:39;;;;;;;11.30;4.40;;;;;;;;;;5073516;28;20044;-67
2022/08/27 14:29:04;;;;;;;8.48;4.85;;;;;;;;;;5055373;28;20217;-66
2022/08/27 14:31:30;;;;;;;13.95;4.07;;;;;;;;;;5072547;28;20581;-66
2022/08/27 14:33:55;;;;;;;8.97;4.23;;;;;;;;;;5073560;28;20017;-65
2022/08/27 14:36:21;;;;;;;17.10;4.38;;;;;;;;;;5072183;28;20251;-66